Buechel, Kentucky
Current Conditions -  °F | °C
As of 2:00 AM on Thursday 27 Nov 2014 (Local Time) from KLOU Reporting Station
Light Snow Light Snow  
Wind Chill: 29°   Ceiling: 1800
Heat Index: 33°   Visibility: 1.5mi
Dew Point: 31°   Wind: 5mph
Humidity: 92%   Direction: 340°NNW
Pressure: 30.08"   Gusts: NA
Location:  38.1869°N, 85.6523°W
Report Text: KLOU 270700Z AUTO 34004KT 1 1/2SM -SN BR OVC018 01/M01 A3008 RMK AO2 P0001 T00061006
Loading
Personal Weather Stations






























Interactive Weather Map New forecast layout! Learn more

10-Day Weather Forecast

Advertisements
Track Severe Weather on mobile